Time;durP1;ratioP1;P1;durP2;ratioP2;P2;SDS_P1;SDS_P2;PMS_P1;PMS_P2;Temp;Humidity;BMP_temperature;BMP_pressure;BME280_temperature;BME280_humidity;BME280_pressure;Samples;Min_cycle;Max_cycle;Signal;HPM_P1;HPM_P2
2022/10/15 00:00:05;;;;;;;4.32;3.05;;;;;;;13.17;55.63;95164.78;5088355;28;20246;-62
2022/10/15 00:02:30;;;;;;;5.03;2.60;;;;;;;13.21;56.10;95173.22;5071290;28;20180;-62
2022/10/15 00:05:00;;;;;;;3.03;2.50;;;;;;;13.13;56.69;95165.28;5067713;28;20259;-63
2022/10/15 00:07:27;;;;;;;7.60;3.22;;;;;;;13.10;57.01;95169.06;5076178;28;20257;-62
2022/10/15 00:09:53;;;;;;;3.47;3.05;;;;;;;13.07;57.23;95161.50;5074665;28;20195;-62
2022/10/15 00:12:18;;;;;;;4.32;3.13;;;;;;;13.13;57.22;95154.72;5063866;28;20204;-62
2022/10/15 00:14:44;;;;;;;4.85;3.33;;;;;;;13.02;57.81;95154.06;5084538;28;20184;-62
2022/10/15 00:17:09;;;;;;;4.63;3.22;;;;;;;13.09;57.91;95162.13;5084977;28;20187;-62
2022/10/15 00:19:34;;;;;;;4.47;3.10;;;;;;;13.05;58.16;95152.91;5088087;28;20190;-62
2022/10/15 00:22:01;;;;;;;5.28;3.25;;;;;;;13.03;58.44;95155.69;5084176;28;20180;-62
2022/10/15 00:24:26;;;;;;;4.47;3.10;;;;;;;13.03;58.66;95154.88;5086375;28;20208;-62
2022/10/15 00:26:51;;;;;;;3.70;3.30;;;;;;;12.99;58.74;95148.25;5090066;28;20245;-63
2022/10/15 00:29:17;;;;;;;4.18;3.45;;;;;;;13.04;58.96;95161.78;5085599;28;20180;-63
2022/10/15 00:31:42;;;;;;;4.93;3.80;;;;;;;12.98;58.95;95155.34;5082958;28;20203;-63
2022/10/15 00:34:08;;;;;;;3.78;3.47;;;;;;;13.01;58.75;95139.19;5085965;28;20177;-64
2022/10/15 00:36:35;;;;;;;6.30;3.42;;;;;;;13.09;58.86;95145.47;5079356;28;20199;-63
2022/10/15 00:39:01;;;;;;;4.38;3.28;;;;;;;13.03;59.00;95136.41;5076061;28;20204;-64
2022/10/15 00:41:30;;;;;;;3.50;3.00;;;;;;;12.93;59.16;95133.06;5081397;28;20188;-64
2022/10/15 00:43:58;;;;;;;5.13;3.50;;;;;;;12.85;59.61;95130.44;5077538;28;20240;-64
2022/10/15 00:46:36;;;;;;;3.85;3.08;;;;;;;13.04;59.20;95140.66;5085001;28;20180;-64
2022/10/15 00:49:18;;;;;;;5.15;3.97;;;;;;;12.98;59.61;95131.59;5084066;28;20180;-63
2022/10/15 00:51:48;;;;;;;5.10;3.65;;;;;;;12.86;59.99;95124.19;5082003;28;20200;-63
2022/10/15 00:54:14;;;;;;;4.00;3.60;;;;;;;12.89;59.71;95119.41;5087704;28;20203;-63
2022/10/15 00:56:43;;;;;;;5.68;4.10;;;;;;;12.85;60.20;95119.88;5078422;28;20176;-63
2022/10/15 00:59:11;;;;;;;4.28;3.88;;;;;;;12.89;60.32;95122.03;5082194;28;20184;-62
2022/10/15 01:01:37;;;;;;;5.00;4.10;;;;;;;12.94;60.21;95124.19;5083144;28;20255;-62
2022/10/15 01:04:05;;;;;;;5.63;3.90;;;;;;;12.84;60.43;95118.25;5080404;28;20204;-62
2022/10/15 01:06:30;;;;;;;4.60;4.10;;;;;;;13.03;60.26;95134.56;5081457;28;20233;-62
2022/10/15 01:08:56;;;;;;;4.50;3.97;;;;;;;12.92;60.38;95120.88;5084284;28;20231;-63
2022/10/15 01:11:43;;;;;;;4.63;3.80;;;;;;;12.90;60.53;95128.13;5083663;28;20287;-63
2022/10/15 01:14:11;;;;;;;4.93;4.00;;;;;;;12.82;60.53;95118.38;5082250;28;20205;-63
2022/10/15 01:16:54;;;;;;;7.72;3.95;;;;;;;12.83;60.47;95119.22;5085791;28;20274;-62
2022/10/15 01:19:45;;;;;;;5.03;4.55;;;;;;;12.86;60.61;95126.81;5079926;28;20194;-63
2022/10/15 01:22:40;;;;;;;5.60;4.10;;;;;;;12.90;60.30;95123.66;5024297;28;20192;-63
2022/10/15 01:25:43;;;;;;;4.72;3.92;;;;;;;12.94;60.40;95127.66;5033572;28;20508;-63
2022/10/15 01:28:34;;;;;;;4.50;4.10;;;;;;;12.95;60.38;95123.19;5041485;28;20189;-63
2022/10/15 01:31:09;;;;;;;4.85;4.43;;;;;;;12.94;60.40;95119.72;4948371;28;20218;-63
2022/10/15 01:33:58;;;;;;;4.90;4.30;;;;;;;13.00;60.36;95127.00;4922917;29;20218;-64
2022/10/15 01:36:46;;;;;;;6.70;4.40;;;;;;;12.88;60.46;95115.09;4953217;29;20192;-64
2022/10/15 01:39:24;;;;;;;6.63;4.45;;;;;;;12.78;60.89;95120.53;4953837;29;20193;-63
2022/10/15 01:41:57;;;;;;;6.38;4.60;;;;;;;12.78;61.09;95120.53;4935817;29;20200;-63
2022/10/15 01:44:30;;;;;;;4.75;4.28;;;;;;;12.82;60.90;95118.38;4952733;29;20227;-63
2022/10/15 01:47:10;;;;;;;5.95;4.30;;;;;;;12.90;60.77;95114.94;4937415;29;20197;-64
2022/10/15 01:49:41;;;;;;;5.97;4.43;;;;;;;12.85;60.74;95111.97;4932057;29;20204;-62
2022/10/15 01:52:15;;;;;;;5.35;4.45;;;;;;;12.85;61.08;95125.16;4938076;29;20224;-63
2022/10/15 01:54:42;;;;;;;4.47;3.92;;;;;;;12.72;61.29;95112.44;4935596;29;20194;-62
2022/10/15 01:57:10;;;;;;;4.88;3.83;;;;;;;12.76;61.39;95119.88;4953647;28;20201;-63
2022/10/15 01:59:35;;;;;;;4.90;4.40;;;;;;;12.79;61.22;95114.25;4979242;28;20237;-62
2022/10/15 02:02:01;;;;;;;4.95;4.47;;;;;;;12.77;61.46;95118.88;4994514;28;20223;-63
2022/10/15 02:04:29;;;;;;;5.13;4.63;;;;;;;12.78;61.67;95125.00;4992349;28;20204;-63
2022/10/15 02:07:35;;;;;;;4.78;4.38;;;;;;;12.77;61.53;95121.50;5007207;28;20211;-62
2022/10/15 02:10:16;;;;;;;4.45;4.00;;;;;;;12.81;61.70;95116.75;5009697;28;20195;-63
2022/10/15 02:13:03;;;;;;;5.25;4.03;;;;;;;12.79;61.55;95110.81;4991575;28;20294;-63
2022/10/15 02:15:58;;;;;;;4.85;4.38;;;;;;;12.85;61.24;95119.88;5021089;28;20202;-63
2022/10/15 02:18:54;;;;;;;4.65;4.13;;;;;;;12.78;61.58;95125.00;5007004;28;20288;-62
2022/10/15 02:21:31;;;;;;;5.20;4.75;;;;;;;12.85;61.76;95122.50;5016368;28;20195;-62
2022/10/15 02:24:08;;;;;;;4.70;4.20;;;;;;;12.69;61.86;95115.41;4994246;28;20214;-62
2022/10/15 02:26:36;;;;;;;5.28;4.40;;;;;;;12.75;61.89;95114.75;4992748;28;20298;-63
2022/10/15 02:29:06;;;;;;;6.28;4.88;;;;;;;12.77;61.85;95120.69;5004869;28;20198;-62
2022/10/15 02:31:34;;;;;;;5.50;4.40;;;;;;;12.77;61.77;95124.16;5007692;28;20658;-62
2022/10/15 02:34:03;;;;;;;5.18;4.68;;;;;;;12.70;62.28;95123.16;5007605;28;20281;-64
2022/10/15 02:36:29;;;;;;;4.68;4.28;;;;;;;12.72;62.23;95131.75;4992181;28;20218;-62
2022/10/15 02:38:57;;;;;;;5.30;4.80;;;;;;;12.64;62.13;95115.88;5011805;28;20273;-62
2022/10/15 02:41:22;;;;;;;6.55;4.53;;;;;;;12.63;62.53;95124.78;4992516;28;20305;-63
2022/10/15 02:43:48;;;;;;;5.72;4.63;;;;;;;12.68;62.43;95117.22;5011283;28;20202;-63
2022/10/15 02:46:16;;;;;;;5.15;4.10;;;;;;;12.59;62.94;95120.84;5004791;28;20229;-62
2022/10/15 02:48:41;;;;;;;5.10;3.80;;;;;;;12.69;62.74;95116.22;5085346;28;20195;-62
2022/10/15 02:51:07;;;;;;;4.38;3.80;;;;;;;12.53;63.06;95116.19;5082057;28;20208;-63
2022/10/15 02:53:33;;;;;;;4.95;4.15;;;;;;;12.62;62.95;95115.22;5084028;28;20183;-62
2022/10/15 02:55:59;;;;;;;5.70;4.43;;;;;;;12.69;63.03;95120.66;5083033;28;20217;-62
2022/10/15 02:58:24;;;;;;;4.85;3.88;;;;;;;12.70;62.99;95115.25;5084970;28;20248;-63
2022/10/15 03:00:50;;;;;;;4.07;3.60;;;;;;;12.75;62.84;95118.22;5084149;28;20304;-62
2022/10/15 03:03:16;;;;;;;4.57;3.55;;;;;;;12.64;63.13;95115.88;5087322;28;20201;-63
2022/10/15 03:05:42;;;;;;;7.35;3.95;;;;;;;12.63;63.23;95113.41;5087390;28;20185;-63
2022/10/15 03:08:07;;;;;;;4.28;3.88;;;;;;;12.66;63.01;95121.00;5084547;28;20228;-62
2022/10/15 03:10:33;;;;;;;8.05;4.20;;;;;;;12.63;63.20;95114.22;5082288;28;20176;-62
2022/10/15 03:13:03;;;;;;;4.30;3.90;;;;;;;12.63;63.38;95118.69;5082111;28;20388;-63
2022/10/15 03:15:28;;;;;;;5.53;3.70;;;;;;;12.55;63.57;95109.75;5087254;28;20236;-62
2022/10/15 03:17:54;;;;;;;4.07;3.70;;;;;;;12.50;63.73;95111.22;5083929;28;20188;-63
2022/10/15 03:20:19;;;;;;;4.68;3.90;;;;;;;12.63;63.59;95118.69;5089707;28;20211;-63
2022/10/15 03:22:45;;;;;;;4.25;3.83;;;;;;;12.61;63.54;95118.84;5087416;28;20211;-63
2022/10/15 03:25:11;;;;;;;4.63;4.20;;;;;;;12.60;63.41;95116.38;5085546;28;20188;-62
2022/10/15 03:27:36;;;;;;;4.57;3.97;;;;;;;12.57;63.35;95123.63;5088871;28;20201;-63
2022/10/15 03:30:02;;;;;;;4.63;4.13;;;;;;;12.66;63.38;95128.91;5087631;28;20271;-63
2022/10/15 03:32:28;;;;;;;4.45;3.67;;;;;;;12.58;63.38;95113.88;5081746;28;20210;-63
2022/10/15 03:34:53;;;;;;;5.22;3.70;;;;;;;12.67;63.24;95115.56;5085840;28;20635;-62
2022/10/15 03:37:18;;;;;;;4.15;3.58;;;;;;;12.71;63.13;95123.97;5085843;28;20204;-63
2022/10/15 03:39:44;;;;;;;5.75;4.60;;;;;;;12.55;63.56;95120.31;5082711;28;20267;-63
2022/10/15 03:42:09;;;;;;;7.63;4.47;;;;;;;12.50;63.81;95122.59;5087937;28;20283;-63
2022/10/15 03:44:35;;;;;;;5.90;3.92;;;;;;;12.51;63.67;95121.63;5082956;28;20330;-62
2022/10/15 03:47:00;;;;;;;5.68;4.20;;;;;;;12.53;63.50;95127.56;5083193;28;20196;-62
2022/10/15 03:49:26;;;;;;;7.10;4.10;;;;;;;12.46;63.43;95125.75;5085000;28;20191;-62
2022/10/15 03:51:51;;;;;;;5.28;4.03;;;;;;;12.46;63.74;95123.09;5083646;28;20326;-62
2022/10/15 03:54:17;;;;;;;5.18;3.95;;;;;;;12.32;64.24;95129.78;5081722;28;20191;-62
2022/10/15 03:56:42;;;;;;;6.43;4.78;;;;;;;12.36;64.37;95126.69;5068669;28;20192;-62
2022/10/15 03:59:07;;;;;;;7.13;4.40;;;;;;;12.39;64.41;95135.28;5086920;28;20183;-62
2022/10/15 04:01:33;;;;;;;6.63;4.28;;;;;;;12.35;64.56;95130.31;5087234;28;20188;-63
2022/10/15 04:03:58;;;;;;;6.95;4.50;;;;;;;12.42;64.14;95134.94;5081831;28;20196;-63
2022/10/15 04:06:24;;;;;;;6.13;4.88;;;;;;;12.39;64.25;95130.81;5088966;28;20199;-63
2022/10/15 04:08:49;;;;;;;5.60;4.38;;;;;;;12.48;64.41;95140.44;5085851;28;20223;-63
2022/10/15 04:11:15;;;;;;;5.63;4.07;;;;;;;12.50;64.25;95140.25;5086532;28;20188;-62
2022/10/15 04:13:40;;;;;;;7.68;4.45;;;;;;;12.47;64.36;95140.56;5089700;28;20180;-63
2022/10/15 04:16:06;;;;;;;6.53;4.00;;;;;;;12.43;64.14;95133.94;5086213;28;20225;-63
2022/10/15 04:18:32;;;;;;;5.90;4.82;;;;;;;12.35;64.51;95135.59;5085631;28;20192;-64
2022/10/15 04:20:58;;;;;;;6.97;4.80;;;;;;;12.43;64.28;95137.44;5079938;28;20195;-63
2022/10/15 04:23:24;;;;;;;5.50;4.57;;;;;;;12.38;64.67;95145.00;5076642;28;20246;-64
2022/10/15 04:25:49;;;;;;;5.18;4.22;;;;;;;12.32;64.92;95141.19;5083519;28;20192;-63
2022/10/15 04:28:15;;;;;;;6.75;4.63;;;;;;;12.35;64.70;95129.50;5080442;28;20185;-63
2022/10/15 04:30:40;;;;;;;7.10;4.50;;;;;;;12.38;64.72;95138.91;5080858;28;20193;-63
2022/10/15 04:33:05;;;;;;;6.45;4.45;;;;;;;12.30;64.75;95126.53;5081514;28;20218;-63
2022/10/15 04:35:33;;;;;;;5.45;4.47;;;;;;;12.26;64.85;95128.63;5086615;28;20214;-63
2022/10/15 04:37:59;;;;;;;8.77;4.57;;;;;;;12.29;64.95;95146.75;5084081;28;20180;-63
2022/10/15 04:40:25;;;;;;;6.20;4.82;;;;;;;12.28;64.96;95153.03;5080345;28;20176;-63
2022/10/15 04:42:50;;;;;;;6.65;5.18;;;;;;;12.12;65.34;95145.88;5082768;28;20180;-63
2022/10/15 04:45:16;;;;;;;6.40;5.25;;;;;;;12.15;65.45;95144.72;5084691;28;20239;-63
2022/10/15 04:47:42;;;;;;;7.82;5.38;;;;;;;12.15;65.45;95157.91;5083694;28;20217;-63
2022/10/15 04:50:07;;;;;;;6.75;4.70;;;;;;;12.14;65.53;95157.09;5083295;28;20185;-63
2022/10/15 04:52:34;;;;;;;8.27;5.82;;;;;;;12.34;64.99;95162.13;5084687;28;20211;-63
2022/10/15 04:54:59;;;;;;;7.20;4.90;;;;;;;12.32;65.00;95157.00;5086065;28;20261;-63
2022/10/15 04:57:25;;;;;;;10.18;5.72;;;;;;;12.24;65.32;95159.63;5084277;28;20270;-63
2022/10/15 04:59:51;;;;;;;5.53;5.03;;;;;;;12.32;64.96;95162.28;5082415;28;20195;-64
2022/10/15 05:02:17;;;;;;;7.00;4.80;;;;;;;12.23;65.39;95155.31;5073958;28;20177;-63
2022/10/15 05:04:43;;;;;;;5.65;5.00;;;;;;;12.27;65.16;95158.44;5087442;28;20204;-63
2022/10/15 05:07:08;;;;;;;7.78;5.55;;;;;;;12.30;64.92;95161.63;5091982;28;20215;-63
2022/10/15 05:09:34;;;;;;;6.20;5.00;;;;;;;12.40;64.58;95166.75;5087105;28;20184;-64
2022/10/15 05:11:59;;;;;;;9.38;5.70;;;;;;;12.35;64.79;95158.50;5087005;28;20191;-63
2022/10/15 05:14:25;;;;;;;6.07;5.40;;;;;;;12.24;65.45;95170.16;5095364;28;20210;-63
2022/10/15 05:16:50;;;;;;;10.43;5.63;;;;;;;12.36;65.02;95176.78;5089478;28;20270;-64
2022/10/15 05:19:16;;;;;;;5.75;5.18;;;;;;;12.41;64.60;95171.06;5090602;28;20194;-63
2022/10/15 05:21:42;;;;;;;7.35;5.45;;;;;;;12.49;64.40;95179.00;5092847;28;20192;-63
2022/10/15 05:24:09;;;;;;;7.72;5.60;;;;;;;12.38;64.71;95171.38;5092855;28;20212;-63
2022/10/15 05:26:34;;;;;;;6.55;4.95;;;;;;;12.36;64.74;95171.53;5091002;28;20179;-63
2022/10/15 05:29:00;;;;;;;6.35;4.88;;;;;;;12.33;64.75;95171.03;5084751;28;20180;-63
2022/10/15 05:31:28;;;;;;;6.05;4.75;;;;;;;12.42;64.73;95177.97;5094017;28;20190;-63
2022/10/15 05:33:54;;;;;;;7.38;5.47;;;;;;;12.44;64.71;95183.09;5090204;28;20184;-63
2022/10/15 05:36:25;;;;;;;7.10;4.93;;;;;;;12.45;64.47;95174.19;5092442;28;20189;-63
2022/10/15 05:38:56;;;;;;;8.27;5.88;;;;;;;12.58;64.24;95182.47;5085231;28;20212;-66
2022/10/15 05:41:23;;;;;;;7.97;5.63;;;;;;;12.48;64.37;95187.03;5090724;28;20208;-63
2022/10/15 05:43:50;;;;;;;5.85;5.22;;;;;;;12.50;64.50;95187.72;5089547;28;20224;-63
2022/10/15 05:46:16;;;;;;;5.90;5.40;;;;;;;12.51;64.38;95194.63;5093417;28;20236;-62
2022/10/15 05:48:42;;;;;;;7.25;5.97;;;;;;;12.58;64.19;95199.13;5087929;28;20181;-63
2022/10/15 05:51:11;;;;;;;7.75;6.05;;;;;;;12.83;63.09;95201.00;5089271;28;20192;-63
2022/10/15 05:53:37;;;;;;;5.85;4.85;;;;;;;12.69;63.82;95205.09;5090003;28;20247;-62
2022/10/15 05:56:04;;;;;;;6.95;5.78;;;;;;;12.71;63.80;95205.78;5092080;28;20184;-63
2022/10/15 05:58:29;;;;;;;7.47;5.75;;;;;;;12.69;63.95;95195.38;5093277;28;20187;-63
2022/10/15 06:01:05;;;;;;;6.72;6.13;;;;;;;12.91;63.18;95211.59;5088349;28;20208;-63
2022/10/15 06:03:31;;;;;;;6.05;5.45;;;;;;;12.98;63.25;95205.50;5090346;28;20300;-63
2022/10/15 06:05:57;;;;;;;7.97;5.97;;;;;;;12.99;63.17;95199.25;5095510;28;20184;-63
2022/10/15 06:08:22;;;;;;;9.05;6.63;;;;;;;13.17;62.40;95195.63;5087593;28;20240;-62
2022/10/15 06:10:48;;;;;;;7.93;6.30;;;;;;;13.11;62.09;95206.84;5089904;28;20238;-63
2022/10/15 06:13:15;;;;;;;6.88;6.10;;;;;;;13.13;62.33;95196.97;5089417;28;20279;-63
2022/10/15 06:15:42;;;;;;;6.57;5.82;;;;;;;13.22;61.78;95203.91;5086270;28;20185;-64
2022/10/15 06:18:09;;;;;;;7.30;5.95;;;;;;;13.32;61.53;95212.53;5082851;28;20239;-66
2022/10/15 06:20:35;;;;;;;7.10;5.93;;;;;;;13.37;61.43;95219.97;5090102;28;20185;-63
2022/10/15 06:23:02;;;;;;;12.55;6.28;;;;;;;13.43;61.65;95222.75;5090799;28;20188;-63
2022/10/15 06:25:28;;;;;;;7.80;5.82;;;;;;;13.39;61.29;95217.97;5091317;28;20185;-63
2022/10/15 06:27:53;;;;;;;7.45;5.70;;;;;;;13.39;61.13;95228.53;5081093;28;20188;-63
2022/10/15 06:30:19;;;;;;;9.20;6.35;;;;;;;13.28;61.58;95228.84;5082068;28;20184;-63
2022/10/15 06:32:52;;;;;;;7.97;6.63;;;;;;;13.30;61.40;95221.59;5087254;28;20223;-63
2022/10/15 06:35:19;;;;;;;8.38;5.55;;;;;;;13.39;60.91;95231.16;5087441;28;20211;-63
2022/10/15 06:37:45;;;;;;;7.97;5.88;;;;;;;13.49;60.68;95238.94;5086197;28;20248;-63
2022/10/15 06:40:11;;;;;;;6.68;5.57;;;;;;;13.57;60.22;95234.50;5091882;28;20291;-62
2022/10/15 06:42:37;;;;;;;8.82;6.18;;;;;;;13.74;59.76;95239.78;5088957;28;20193;-63
2022/10/15 06:45:04;;;;;;;8.90;5.63;;;;;;;13.71;59.80;95243.56;5083456;28;20205;-64
2022/10/15 06:47:30;;;;;;;6.57;5.90;;;;;;;13.59;60.23;95237.81;5084055;28;20188;-64
2022/10/15 06:49:55;;;;;;;7.35;5.55;;;;;;;13.61;60.12;95237.66;5085796;28;20266;-64
2022/10/15 06:52:20;;;;;;;8.15;5.53;;;;;;;13.71;60.24;95242.75;5089078;28;20188;-66
2022/10/15 06:54:46;;;;;;;7.05;4.97;;;;;;;13.60;59.86;95233.34;5087532;28;20271;-65
2022/10/15 06:57:11;;;;;;;7.70;5.18;;;;;;;13.56;60.56;95245.25;5085198;28;20196;-64
2022/10/15 06:59:37;;;;;;;6.75;5.32;;;;;;;13.81;59.65;95238.13;5082838;28;20265;-63
2022/10/15 07:02:03;;;;;;;6.75;5.40;;;;;;;13.80;59.44;95245.22;5085105;28;20192;-65
2022/10/15 07:04:28;;;;;;;9.10;6.15;;;;;;;13.83;59.09;95241.44;5076696;28;20520;-63
2022/10/15 07:06:54;;;;;;;8.13;6.03;;;;;;;13.85;59.21;95242.09;5077610;28;20177;-63
2022/10/15 07:09:19;;;;;;;9.32;6.03;;;;;;;13.96;58.53;95241.75;5075592;28;20184;-63
2022/10/15 07:11:45;;;;;;;7.72;5.57;;;;;;;14.08;58.07;95250.97;5067017;28;20187;-63
2022/10/15 07:14:11;;;;;;;7.38;5.50;;;;;;;13.98;58.26;95250.34;5078623;28;20181;-63
2022/10/15 07:16:38;;;;;;;6.00;5.43;;;;;;;13.94;58.17;95246.38;5080973;28;20187;-61
2022/10/15 07:19:04;;;;;;;6.72;5.72;;;;;;;13.95;57.83;95253.31;5080381;28;20609;-64
2022/10/15 07:21:29;;;;;;;8.68;5.85;;;;;;;13.97;57.70;95253.97;5077279;28;20177;-63
2022/10/15 07:23:55;;;;;;;9.88;5.45;;;;;;;13.93;58.00;95257.97;5082570;28;20204;-64
2022/10/15 07:26:20;;;;;;;8.23;5.68;;;;;;;14.02;57.31;95259.59;5078744;28;20181;-63
2022/10/15 07:28:46;;;;;;;6.13;5.63;;;;;;;14.08;56.95;95256.25;5072966;28;20180;-63
2022/10/15 07:31:11;;;;;;;8.43;5.70;;;;;;;14.11;56.94;95261.25;5077766;28;20197;-63
2022/10/15 07:33:37;;;;;;;6.97;5.80;;;;;;;14.19;57.21;95244.50;5074984;28;20188;-64
2022/10/15 07:36:11;;;;;;;6.22;5.55;;;;;;;14.43;55.13;95259.50;5074316;28;20177;-64
2022/10/15 07:38:38;;;;;;;7.22;4.35;;;;;;;14.37;55.06;95256.72;5075229;28;20179;-62
2022/10/15 07:41:06;;;;;;;6.05;5.28;;;;;;;14.49;54.35;95250.91;5076357;28;20187;-62
2022/10/15 07:43:32;;;;;;;5.55;5.05;;;;;;;14.85;53.11;95270.81;5072335;28;20208;-62
2022/10/15 07:45:57;;;;;;;6.57;5.80;;;;;;;15.09;52.83;95256.66;5078451;28;20195;-62
2022/10/15 07:48:23;;;;;;;7.78;5.30;;;;;;;15.03;52.71;95255.53;5082671;28;20180;-63
2022/10/15 07:50:57;;;;;;;5.70;5.03;;;;;;;15.00;51.90;95254.03;5079468;28;20187;-62
2022/10/15 07:53:22;;;;;;;5.53;4.97;;;;;;;14.78;52.73;95253.00;5075156;28;20192;-62
2022/10/15 07:55:48;;;;;;;5.95;4.80;;;;;;;14.89;52.79;95248.28;5079742;28;20267;-63
2022/10/15 07:58:14;;;;;;;5.75;4.90;;;;;;;14.96;52.53;95254.56;5086248;28;20188;-63
2022/10/15 08:00:39;;;;;;;6.00;5.40;;;;;;;15.04;52.63;95246.56;5083735;28;20218;-62
2022/10/15 08:03:05;;;;;;;7.00;5.40;;;;;;;14.97;52.92;95254.38;5087662;28;20199;-64
2022/10/15 08:05:30;;;;;;;6.00;5.40;;;;;;;14.84;53.36;95266.53;5088809;28;20269;-62
2022/10/15 08:07:56;;;;;;;7.28;5.50;;;;;;;14.62;54.12;95265.44;5077240;28;20231;-62
2022/10/15 08:10:21;;;;;;;7.85;5.30;;;;;;;14.64;53.52;95266.09;5080093;28;20194;-62
2022/10/15 08:12:47;;;;;;;6.65;4.95;;;;;;;14.67;53.35;95260.47;5087344;28;20185;-63
2022/10/15 08:15:12;;;;;;;5.75;4.82;;;;;;;14.76;53.17;95251.50;5083808;28;20184;-62
2022/10/15 08:17:38;;;;;;;5.22;4.72;;;;;;;14.94;53.02;95251.25;5089154;28;20238;-62
2022/10/15 08:20:03;;;;;;;5.72;4.63;;;;;;;15.10;52.45;95253.00;5080552;28;20193;-61
2022/10/15 08:22:29;;;;;;;6.22;5.18;;;;;;;15.28;51.61;95248.25;5077279;28;20192;-61
2022/10/15 08:24:54;;;;;;;5.88;5.18;;;;;;;15.15;51.63;95246.16;5086200;28;20200;-63
2022/10/15 08:27:20;;;;;;;5.57;5.07;;;;;;;15.10;51.30;95245.03;5082875;28;20230;-63
2022/10/15 08:29:45;;;;;;;6.50;5.05;;;;;;;15.13;50.94;95242.88;5088101;28;20188;-63
2022/10/15 08:32:11;;;;;;;5.22;4.72;;;;;;;15.11;50.45;95244.88;5084389;28;20203;-63
2022/10/15 08:34:37;;;;;;;5.43;4.93;;;;;;;15.25;50.41;95248.59;5083224;28;20184;-63
2022/10/15 08:37:03;;;;;;;5.13;4.63;;;;;;;15.22;50.29;95246.31;5086241;28;20192;-63
2022/10/15 08:39:28;;;;;;;5.10;4.60;;;;;;;15.33;49.81;95237.94;5086314;28;20207;-63
2022/10/15 08:41:57;;;;;;;5.85;4.50;;;;;;;15.20;50.61;95240.34;5078803;28;20253;-63
2022/10/15 08:44:43;;;;;;;6.38;4.82;;;;;;;15.28;49.95;95235.00;5083099;28;20204;-63
2022/10/15 08:47:14;;;;;;;6.07;4.90;;;;;;;15.18;49.76;95229.09;5084000;28;20192;-64
2022/10/15 08:49:52;;;;;;;7.70;5.15;;;;;;;15.12;49.56;95238.56;5085350;28;20220;-63
2022/10/15 08:52:38;;;;;;;5.15;4.65;;;;;;;15.29;49.13;95238.47;5093545;28;20343;-63
2022/10/15 08:55:03;;;;;;;5.20;4.60;;;;;;;15.40;49.29;95235.44;5076288;28;20185;-63
2022/10/15 08:57:35;;;;;;;7.03;4.30;;;;;;;15.67;48.30;95242.03;5070860;28;20185;-62
2022/10/15 09:00:11;;;;;;;6.35;4.70;;;;;;;15.53;48.18;95232.19;5085627;28;20188;-64
2022/10/15 09:03:01;;;;;;;5.20;4.55;;;;;;;15.47;49.18;95240.84;5081136;28;20210;-61
2022/10/15 09:06:00;;;;;;;6.63;4.90;;;;;;;15.57;49.25;95238.78;5081389;28;20324;-61
2022/10/15 09:08:52;;;;;;;5.70;4.60;;;;;;;15.59;49.58;95244.75;5080669;28;20288;-62
2022/10/15 09:11:50;;;;;;;6.25;4.72;;;;;;;15.66;48.30;95229.75;5003344;28;20661;-62
2022/10/15 09:14:19;;;;;;;6.47;4.75;;;;;;;15.45;49.17;95241.03;5034487;28;20191;-61
2022/10/15 09:16:52;;;;;;;5.25;4.63;;;;;;;15.41;48.66;95235.25;5009870;28;20202;-61
2022/10/15 09:19:23;;;;;;;4.95;4.45;;;;;;;15.27;49.55;95245.78;5010142;28;20270;-62
2022/10/15 09:21:50;;;;;;;5.53;5.00;;;;;;;15.31;49.84;95247.91;5008798;28;20214;-63
2022/10/15 09:24:21;;;;;;;5.20;4.70;;;;;;;15.34;49.04;95239.63;5009740;28;20218;-62
2022/10/15 09:27:11;;;;;;;5.55;4.45;;;;;;;15.79;47.82;95230.03;5035672;28;20218;-63
2022/10/15 09:29:54;;;;;;;4.80;4.30;;;;;;;16.09;46.98;95246.84;5020631;28;20294;-62
2022/10/15 09:32:26;;;;;;;4.57;4.10;;;;;;;16.29;45.86;95231.22;5019526;28;20209;-63
2022/10/15 09:35:06;;;;;;;5.10;4.30;;;;;;;16.37;45.35;95237.44;5023201;28;20198;-63
2022/10/15 09:37:48;;;;;;;4.88;3.60;;;;;;;16.18;45.27;95229.00;5008970;28;20388;-64
2022/10/15 09:40:34;;;;;;;5.05;3.83;;;;;;;16.12;45.31;95228.91;5009728;28;20190;-63
2022/10/15 09:43:01;;;;;;;5.25;4.38;;;;;;;16.34;45.62;95237.81;5007224;28;20276;-63
2022/10/15 09:45:27;;;;;;;4.60;4.13;;;;;;;16.43;45.38;95232.22;5005461;28;20216;-63
2022/10/15 09:47:59;;;;;;;4.90;4.50;;;;;;;16.58;44.36;95223.47;5032854;28;20644;-63
2022/10/15 09:51:19;;;;;;;5.65;4.18;;;;;;;16.56;45.22;95223.63;5079427;28;20291;-62
2022/10/15 09:54:04;;;;;;;5.03;4.53;;;;;;;16.37;45.38;95221.53;5012138;28;20195;-63
2022/10/15 09:56:39;;;;;;;5.80;4.30;;;;;;;16.36;46.30;95219.88;5009975;28;20238;-63
2022/10/15 09:59:04;;;;;;;4.47;3.95;;;;;;;16.36;45.70;95217.22;5012198;28;20295;-63
2022/10/15 10:01:32;;;;;;;5.10;4.60;;;;;;;16.46;45.36;95225.72;5011245;28;20194;-63
2022/10/15 10:04:17;;;;;;;4.60;4.20;;;;;;;16.53;44.44;95221.34;4985119;28;20338;-63
2022/10/15 10:07:07;;;;;;;5.93;5.20;;;;;;;16.56;44.66;95230.78;5010731;28;20190;-63
2022/10/15 10:09:51;;;;;;;6.43;4.55;;;;;;;16.53;44.64;95230.13;5031953;28;20230;-62
2022/10/15 10:12:20;;;;;;;5.47;4.97;;;;;;;16.70;44.60;95221.97;4996107;28;20290;-63
2022/10/15 10:14:53;;;;;;;4.75;4.22;;;;;;;16.81;43.91;95223.38;5014270;28;20190;-63
2022/10/15 10:17:21;;;;;;;5.32;4.72;;;;;;;16.70;43.52;95232.59;5009997;28;20224;-62
2022/10/15 10:20:07;;;;;;;6.05;5.05;;;;;;;16.81;43.01;95224.19;5027420;28;20190;-62
2022/10/15 10:22:48;;;;;;;5.95;4.68;;;;;;;16.96;43.10;95226.81;4992693;28;20206;-62
2022/10/15 10:25:25;;;;;;;5.70;4.90;;;;;;;17.02;42.89;95218.09;5010420;28;20330;-64
2022/10/15 10:27:55;;;;;;;5.25;4.18;;;;;;;17.32;40.86;95220.69;5003059;28;20200;-62
2022/10/15 10:30:21;;;;;;;4.60;4.03;;;;;;;17.50;40.94;95213.09;5047250;28;20192;-63
2022/10/15 10:32:47;;;;;;;6.15;4.70;;;;;;;17.11;41.51;95214.34;5088240;28;20181;-63
2022/10/15 10:35:24;;;;;;;4.40;3.97;;;;;;;17.06;41.54;95206.09;5086057;28;20213;-63
2022/10/15 10:37:51;;;;;;;4.28;3.88;;;;;;;17.19;40.56;95205.44;5078877;28;20187;-64
2022/10/15 10:40:32;;;;;;;4.30;3.90;;;;;;;17.05;41.14;95217.72;5076489;28;20192;-63
2022/10/15 10:43:16;;;;;;;3.97;3.63;;;;;;;16.95;41.14;95217.22;5086684;28;20180;-64
2022/10/15 10:45:59;;;;;;;3.70;3.40;;;;;;;17.39;40.20;95217.09;5080064;28;20208;-63
2022/10/15 10:48:28;;;;;;;4.78;3.90;;;;;;;17.58;39.84;95199.69;5084432;28;20218;-63
2022/10/15 10:51:24;;;;;;;5.43;4.10;;;;;;;17.55;39.41;95208.03;5076264;28;20191;-62
2022/10/15 10:53:55;;;;;;;4.93;3.35;;;;;;;17.30;39.72;95199.63;5027274;28;20289;-62
2022/10/15 10:56:36;;;;;;;4.53;3.40;;;;;;;17.15;39.48;95194.34;5010182;28;20186;-62
2022/10/15 10:59:26;;;;;;;3.70;3.40;;;;;;;17.18;38.96;95201.94;5023210;28;20234;-62
2022/10/15 11:01:52;;;;;;;4.50;3.42;;;;;;;17.68;38.79;95203.88;5022985;28;20189;-62
2022/10/15 11:04:23;;;;;;;3.50;2.78;;;;;;;18.29;37.21;95190.84;5008872;28;20221;-62
2022/10/15 11:07:19;;;;;;;4.40;3.15;;;;;;;18.70;37.20;95179.41;5009764;28;20187;-62
2022/10/15 11:09:51;;;;;;;4.13;3.20;;;;;;;19.00;36.05;95179.13;5008682;28;20194;-62
2022/10/15 11:12:22;;;;;;;5.57;3.60;;;;;;;19.47;35.08;95190.75;4990845;28;20244;-63
2022/10/15 11:15:00;;;;;;;4.00;2.92;;;;;;;19.63;34.56;95186.88;5022454;28;20218;-63
2022/10/15 11:17:34;;;;;;;3.50;3.20;;;;;;;19.82;34.59;95184.25;5020988;28;20199;-63
2022/10/15 11:20:17;;;;;;;5.18;3.10;;;;;;;20.24;34.12;95184.03;5007780;28;20191;-62
2022/10/15 11:23:11;;;;;;;4.30;3.40;;;;;;;20.19;33.78;95181.16;4992602;28;20201;-63
2022/10/15 11:25:51;;;;;;;4.10;3.15;;;;;;;19.75;35.59;95196.78;4989173;28;20314;-62
2022/10/15 11:28:22;;;;;;;3.47;3.10;;;;;;;19.50;35.21;95188.50;5004408;28;20190;-63
2022/10/15 11:31:02;;;;;;;3.45;2.88;;;;;;;19.39;34.95;95184.56;5030456;28;20198;-63
2022/10/15 11:33:49;;;;;;;3.22;2.92;;;;;;;19.42;34.92;95183.34;5045358;28;20193;-63
2022/10/15 11:36:45;;;;;;;5.35;3.35;;;;;;;19.54;34.57;95179.06;5041045;28;20222;-63
2022/10/15 11:39:13;;;;;;;5.22;3.15;;;;;;;20.24;33.36;95178.69;5032556;28;20812;-63
2022/10/15 11:42:11;;;;;;;3.38;3.08;;;;;;;21.03;31.54;95169.59;5039068;28;20178;-63
2022/10/15 11:45:18;;;;;;;3.63;3.33;;;;;;;21.49;30.71;95165.06;5046112;28;20268;-62
2022/10/15 11:48:38;;;;;;;3.88;3.10;;;;;;;21.89;30.61;95170.97;5028386;28;20205;-62
2022/10/15 11:51:22;;;;;;;3.50;3.15;;;;;;;22.55;30.00;95174.09;4930439;29;20209;-62